sensor_id;sensor_type;location;lat;lon;timestamp;P1;durP1;ratioP1;P2;durP2;ratioP2
66169;SDS011;66757;44.024;20.456;2023-04-23T00:00:23;65.63;;;36.70;;
66169;SDS011;66757;44.024;20.456;2023-04-23T00:02:50;67.88;;;36.20;;
66169;SDS011;66757;44.024;20.456;2023-04-23T00:05:16;56.33;;;32.10;;
66169;SDS011;66757;44.024;20.456;2023-04-23T00:07:42;49.35;;;28.58;;
66169;SDS011;66757;44.024;20.456;2023-04-23T00:10:08;50.25;;;29.45;;
66169;SDS011;66757;44.024;20.456;2023-04-23T00:12:33;57.70;;;29.95;;
66169;SDS011;66757;44.024;20.456;2023-04-23T00:14:59;48.28;;;29.40;;
66169;SDS011;66757;44.024;20.456;2023-04-23T00:17:26;42.00;;;27.33;;
66169;SDS011;66757;44.024;20.456;2023-04-23T00:19:52;46.40;;;26.23;;
66169;SDS011;66757;44.024;20.456;2023-04-23T00:22:18;50.67;;;28.83;;
66169;SDS011;66757;44.024;20.456;2023-04-23T00:24:44;60.15;;;32.58;;
66169;SDS011;66757;44.024;20.456;2023-04-23T00:27:10;60.50;;;33.75;;
66169;SDS011;66757;44.024;20.456;2023-04-23T00:29:35;58.70;;;32.72;;
66169;SDS011;66757;44.024;20.456;2023-04-23T00:32:00;50.75;;;29.77;;
66169;SDS011;66757;44.024;20.456;2023-04-23T00:34:27;52.67;;;31.23;;
66169;SDS011;66757;44.024;20.456;2023-04-23T00:36:52;49.92;;;29.95;;
66169;SDS011;66757;44.024;20.456;2023-04-23T00:39:17;50.28;;;29.40;;
66169;SDS011;66757;44.024;20.456;2023-04-23T00:41:43;43.67;;;27.48;;
66169;SDS011;66757;44.024;20.456;2023-04-23T00:44:08;44.15;;;27.10;;
66169;SDS011;66757;44.024;20.456;2023-04-23T00:46:34;50.72;;;28.40;;
66169;SDS011;66757;44.024;20.456;2023-04-23T00:48:59;48.67;;;28.70;;
66169;SDS011;66757;44.024;20.456;2023-04-23T00:51:25;51.13;;;30.13;;
66169;SDS011;66757;44.024;20.456;2023-04-23T00:53:51;53.55;;;32.83;;
66169;SDS011;66757;44.024;20.456;2023-04-23T00:56:17;58.78;;;32.42;;
66169;SDS011;66757;44.024;20.456;2023-04-23T00:58:42;51.08;;;31.08;;
66169;SDS011;66757;44.024;20.456;2023-04-23T01:01:08;55.50;;;32.45;;
66169;SDS011;66757;44.024;20.456;2023-04-23T01:03:34;51.42;;;32.60;;
66169;SDS011;66757;44.024;20.456;2023-04-23T01:06:00;58.22;;;32.72;;
66169;SDS011;66757;44.024;20.456;2023-04-23T01:11:19;57.13;;;32.42;;
66169;SDS011;66757;44.024;20.456;2023-04-23T01:13:44;46.28;;;28.00;;
66169;SDS011;66757;44.024;20.456;2023-04-23T01:16:10;44.08;;;23.63;;
66169;SDS011;66757;44.024;20.456;2023-04-23T01:18:36;41.60;;;23.98;;
66169;SDS011;66757;44.024;20.456;2023-04-23T01:21:02;31.95;;;20.02;;
66169;SDS011;66757;44.024;20.456;2023-04-23T01:23:28;37.53;;;19.45;;
66169;SDS011;66757;44.024;20.456;2023-04-23T01:28:45;27.60;;;16.60;;
66169;SDS011;66757;44.024;20.456;2023-04-23T01:31:11;26.33;;;15.85;;
66169;SDS011;66757;44.024;20.456;2023-04-23T01:33:39;24.13;;;16.17;;
66169;SDS011;66757;44.024;20.456;2023-04-23T01:36:05;25.63;;;15.60;;
66169;SDS011;66757;44.024;20.456;2023-04-23T01:38:30;24.60;;;14.27;;
66169;SDS011;66757;44.024;20.456;2023-04-23T01:40:57;24.80;;;16.08;;
66169;SDS011;66757;44.024;20.456;2023-04-23T01:43:22;27.58;;;17.33;;
66169;SDS011;66757;44.024;20.456;2023-04-23T01:45:48;32.28;;;16.58;;
66169;SDS011;66757;44.024;20.456;2023-04-23T01:51:05;31.50;;;19.38;;
66169;SDS011;66757;44.024;20.456;2023-04-23T01:53:32;33.92;;;20.25;;
66169;SDS011;66757;44.024;20.456;2023-04-23T01:55:57;35.80;;;20.95;;
66169;SDS011;66757;44.024;20.456;2023-04-23T01:58:24;38.47;;;21.45;;
66169;SDS011;66757;44.024;20.456;2023-04-23T02:00:49;41.60;;;25.02;;
66169;SDS011;66757;44.024;20.456;2023-04-23T02:03:15;40.08;;;24.25;;
66169;SDS011;66757;44.024;20.456;2023-04-23T02:05:40;41.03;;;24.88;;
66169;SDS011;66757;44.024;20.456;2023-04-23T02:08:06;37.35;;;22.00;;
66169;SDS011;66757;44.024;20.456;2023-04-23T02:10:32;38.60;;;22.02;;
66169;SDS011;66757;44.024;20.456;2023-04-23T02:12:57;34.95;;;22.30;;
66169;SDS011;66757;44.024;20.456;2023-04-23T02:15:23;33.78;;;21.25;;
66169;SDS011;66757;44.024;20.456;2023-04-23T02:17:48;36.45;;;22.23;;
66169;SDS011;66757;44.024;20.456;2023-04-23T02:20:16;41.50;;;23.02;;
66169;SDS011;66757;44.024;20.456;2023-04-23T02:22:41;37.25;;;23.08;;
66169;SDS011;66757;44.024;20.456;2023-04-23T02:25:07;32.85;;;22.10;;
66169;SDS011;66757;44.024;20.456;2023-04-23T02:30:23;39.10;;;24.48;;
66169;SDS011;66757;44.024;20.456;2023-04-23T02:32:49;42.03;;;25.83;;
66169;SDS011;66757;44.024;20.456;2023-04-23T02:35:16;47.53;;;24.65;;
66169;SDS011;66757;44.024;20.456;2023-04-23T02:37:41;44.03;;;25.08;;
66169;SDS011;66757;44.024;20.456;2023-04-23T02:40:07;41.30;;;23.52;;
66169;SDS011;66757;44.024;20.456;2023-04-23T02:42:34;42.08;;;23.58;;
66169;SDS011;66757;44.024;20.456;2023-04-23T02:44:59;41.05;;;23.05;;
66169;SDS011;66757;44.024;20.456;2023-04-23T02:47:25;41.42;;;24.27;;
66169;SDS011;66757;44.024;20.456;2023-04-23T02:49:51;35.58;;;23.02;;
66169;SDS011;66757;44.024;20.456;2023-04-23T02:52:16;36.92;;;22.52;;
66169;SDS011;66757;44.024;20.456;2023-04-23T02:54:41;37.97;;;22.42;;
66169;SDS011;66757;44.024;20.456;2023-04-23T02:57:07;36.03;;;21.45;;
66169;SDS011;66757;44.024;20.456;2023-04-23T02:59:32;32.33;;;20.40;;
66169;SDS011;66757;44.024;20.456;2023-04-23T03:01:57;34.55;;;20.67;;
66169;SDS011;66757;44.024;20.456;2023-04-23T03:04:23;34.05;;;20.40;;
66169;SDS011;66757;44.024;20.456;2023-04-23T03:06:49;33.70;;;20.63;;
66169;SDS011;66757;44.024;20.456;2023-04-23T03:09:15;35.20;;;20.83;;
66169;SDS011;66757;44.024;20.456;2023-04-23T03:11:40;39.47;;;21.65;;
66169;SDS011;66757;44.024;20.456;2023-04-23T03:14:06;33.60;;;21.02;;
66169;SDS011;66757;44.024;20.456;2023-04-23T03:16:31;32.42;;;20.38;;
66169;SDS011;66757;44.024;20.456;2023-04-23T03:18:57;32.72;;;21.40;;
66169;SDS011;66757;44.024;20.456;2023-04-23T03:21:22;28.48;;;19.42;;
66169;SDS011;66757;44.024;20.456;2023-04-23T03:23:48;34.17;;;21.35;;
66169;SDS011;66757;44.024;20.456;2023-04-23T03:26:14;40.42;;;22.75;;
66169;SDS011;66757;44.024;20.456;2023-04-23T03:28:39;27.25;;;16.45;;
66169;SDS011;66757;44.024;20.456;2023-04-23T03:31:04;27.42;;;17.15;;
66169;SDS011;66757;44.024;20.456;2023-04-23T03:33:30;27.88;;;16.33;;
66169;SDS011;66757;44.024;20.456;2023-04-23T03:35:55;24.05;;;14.40;;
66169;SDS011;66757;44.024;20.456;2023-04-23T03:38:20;23.20;;;13.27;;
66169;SDS011;66757;44.024;20.456;2023-04-23T03:40:46;18.50;;;12.77;;
66169;SDS011;66757;44.024;20.456;2023-04-23T03:43:11;20.60;;;12.52;;
66169;SDS011;66757;44.024;20.456;2023-04-23T03:45:37;22.10;;;13.20;;
66169;SDS011;66757;44.024;20.456;2023-04-23T03:48:05;21.65;;;12.38;;
66169;SDS011;66757;44.024;20.456;2023-04-23T03:50:30;21.55;;;13.38;;
66169;SDS011;66757;44.024;20.456;2023-04-23T03:52:58;21.25;;;13.70;;
66169;SDS011;66757;44.024;20.456;2023-04-23T03:55:23;26.10;;;13.90;;
66169;SDS011;66757;44.024;20.456;2023-04-23T03:57:49;20.98;;;13.80;;
66169;SDS011;66757;44.024;20.456;2023-04-23T04:00:14;21.17;;;13.00;;
66169;SDS011;66757;44.024;20.456;2023-04-23T04:02:40;22.27;;;12.80;;
66169;SDS011;66757;44.024;20.456;2023-04-23T04:05:05;19.40;;;13.18;;
66169;SDS011;66757;44.024;20.456;2023-04-23T04:07:31;22.35;;;13.05;;
66169;SDS011;66757;44.024;20.456;2023-04-23T04:09:58;20.83;;;13.25;;
66169;SDS011;66757;44.024;20.456;2023-04-23T04:12:24;19.65;;;12.77;;
66169;SDS011;66757;44.024;20.456;2023-04-23T04:14:49;21.25;;;13.98;;
66169;SDS011;66757;44.024;20.456;2023-04-23T04:17:15;22.23;;;13.32;;
66169;SDS011;66757;44.024;20.456;2023-04-23T04:19:41;23.15;;;14.02;;
66169;SDS011;66757;44.024;20.456;2023-04-23T04:22:07;21.77;;;14.18;;
66169;SDS011;66757;44.024;20.456;2023-04-23T04:24:33;22.73;;;14.50;;
66169;SDS011;66757;44.024;20.456;2023-04-23T04:27:01;28.33;;;14.57;;
66169;SDS011;66757;44.024;20.456;2023-04-23T04:29:27;19.98;;;14.20;;
66169;SDS011;66757;44.024;20.456;2023-04-23T04:31:52;21.27;;;13.90;;
66169;SDS011;66757;44.024;20.456;2023-04-23T04:34:18;25.33;;;15.98;;
66169;SDS011;66757;44.024;20.456;2023-04-23T04:36:44;26.45;;;15.65;;
66169;SDS011;66757;44.024;20.456;2023-04-23T04:39:09;26.85;;;15.65;;
66169;SDS011;66757;44.024;20.456;2023-04-23T04:41:35;28.52;;;16.33;;
66169;SDS011;66757;44.024;20.456;2023-04-23T04:44:01;26.33;;;17.15;;
66169;SDS011;66757;44.024;20.456;2023-04-23T04:46:26;32.03;;;17.63;;
66169;SDS011;66757;44.024;20.456;2023-04-23T04:48:54;27.50;;;18.05;;
66169;SDS011;66757;44.024;20.456;2023-04-23T04:51:20;27.52;;;17.65;;
66169;SDS011;66757;44.024;20.456;2023-04-23T04:53:45;26.33;;;18.23;;
66169;SDS011;66757;44.024;20.456;2023-04-23T04:56:10;29.35;;;18.95;;
66169;SDS011;66757;44.024;20.456;2023-04-23T04:58:36;31.02;;;17.95;;
66169;SDS011;66757;44.024;20.456;2023-04-23T05:01:01;26.30;;;16.50;;
66169;SDS011;66757;44.024;20.456;2023-04-23T05:03:26;21.75;;;14.68;;
66169;SDS011;66757;44.024;20.456;2023-04-23T05:05:52;21.05;;;14.25;;
66169;SDS011;66757;44.024;20.456;2023-04-23T05:08:20;27.63;;;14.60;;
66169;SDS011;66757;44.024;20.456;2023-04-23T05:10:46;23.50;;;14.27;;
66169;SDS011;66757;44.024;20.456;2023-04-23T05:13:11;23.75;;;12.82;;
66169;SDS011;66757;44.024;20.456;2023-04-23T05:15:36;23.35;;;14.02;;
66169;SDS011;66757;44.024;20.456;2023-04-23T05:18:03;23.45;;;14.98;;
66169;SDS011;66757;44.024;20.456;2023-04-23T05:20:28;28.20;;;15.10;;
66169;SDS011;66757;44.024;20.456;2023-04-23T05:22:54;25.58;;;14.65;;
66169;SDS011;66757;44.024;20.456;2023-04-23T05:25:19;29.50;;;14.50;;
66169;SDS011;66757;44.024;20.456;2023-04-23T05:27:44;24.73;;;15.35;;
66169;SDS011;66757;44.024;20.456;2023-04-23T05:30:10;19.73;;;13.40;;
66169;SDS011;66757;44.024;20.456;2023-04-23T05:32:35;22.95;;;14.10;;
66169;SDS011;66757;44.024;20.456;2023-04-23T05:35:01;20.85;;;13.32;;
66169;SDS011;66757;44.024;20.456;2023-04-23T05:37:27;26.00;;;14.52;;
66169;SDS011;66757;44.024;20.456;2023-04-23T05:39:53;21.40;;;14.05;;
66169;SDS011;66757;44.024;20.456;2023-04-23T05:42:18;20.50;;;13.45;;
66169;SDS011;66757;44.024;20.456;2023-04-23T05:44:44;30.80;;;19.40;;
66169;SDS011;66757;44.024;20.456;2023-04-23T05:47:11;53.38;;;32.20;;
66169;SDS011;66757;44.024;20.456;2023-04-23T05:49:37;32.83;;;18.63;;
66169;SDS011;66757;44.024;20.456;2023-04-23T05:52:02;25.05;;;16.30;;
66169;SDS011;66757;44.024;20.456;2023-04-23T05:54:28;28.95;;;16.70;;
66169;SDS011;66757;44.024;20.456;2023-04-23T05:56:53;24.38;;;15.02;;
66169;SDS011;66757;44.024;20.456;2023-04-23T05:59:18;22.40;;;13.02;;
66169;SDS011;66757;44.024;20.456;2023-04-23T06:01:45;21.08;;;13.25;;
66169;SDS011;66757;44.024;20.456;2023-04-23T06:04:11;20.92;;;13.85;;
66169;SDS011;66757;44.024;20.456;2023-04-23T06:06:37;23.50;;;13.77;;
66169;SDS011;66757;44.024;20.456;2023-04-23T06:09:02;20.35;;;13.65;;
66169;SDS011;66757;44.024;20.456;2023-04-23T06:11:29;19.98;;;13.20;;
66169;SDS011;66757;44.024;20.456;2023-04-23T06:13:56;19.50;;;13.98;;
66169;SDS011;66757;44.024;20.456;2023-04-23T06:16:21;25.20;;;14.10;;
66169;SDS011;66757;44.024;20.456;2023-04-23T06:18:48;25.75;;;13.40;;
66169;SDS011;66757;44.024;20.456;2023-04-23T06:21:13;21.48;;;13.10;;
66169;SDS011;66757;44.024;20.456;2023-04-23T06:23:39;18.83;;;13.68;;
66169;SDS011;66757;44.024;20.456;2023-04-23T06:26:04;23.23;;;15.10;;
66169;SDS011;66757;44.024;20.456;2023-04-23T06:28:30;21.25;;;13.73;;
66169;SDS011;66757;44.024;20.456;2023-04-23T06:30:56;22.25;;;14.32;;
66169;SDS011;66757;44.024;20.456;2023-04-23T06:33:21;19.10;;;14.30;;
66169;SDS011;66757;44.024;20.456;2023-04-23T06:35:46;20.27;;;12.55;;
66169;SDS011;66757;44.024;20.456;2023-04-23T06:38:12;18.60;;;11.63;;
66169;SDS011;66757;44.024;20.456;2023-04-23T06:40:37;19.17;;;8.88;;
66169;SDS011;66757;44.024;20.456;2023-04-23T06:43:02;17.52;;;9.00;;
66169;SDS011;66757;44.024;20.456;2023-04-23T06:45:32;15.07;;;8.48;;
66169;SDS011;66757;44.024;20.456;2023-04-23T06:47:59;14.07;;;8.95;;
66169;SDS011;66757;44.024;20.456;2023-04-23T06:50:24;15.68;;;8.93;;
66169;SDS011;66757;44.024;20.456;2023-04-23T06:52:51;14.05;;;7.53;;
66169;SDS011;66757;44.024;20.456;2023-04-23T06:55:17;10.80;;;7.03;;
66169;SDS011;66757;44.024;20.456;2023-04-23T06:57:42;11.63;;;7.45;;
66169;SDS011;66757;44.024;20.456;2023-04-23T07:00:08;12.68;;;8.65;;
66169;SDS011;66757;44.024;20.456;2023-04-23T07:02:35;12.40;;;7.15;;
66169;SDS011;66757;44.024;20.456;2023-04-23T07:05:01;11.25;;;6.22;;
66169;SDS011;66757;44.024;20.456;2023-04-23T07:07:27;11.38;;;6.00;;
66169;SDS011;66757;44.024;20.456;2023-04-23T07:09:52;9.40;;;6.03;;
66169;SDS011;66757;44.024;20.456;2023-04-23T07:12:18;10.63;;;6.40;;
66169;SDS011;66757;44.024;20.456;2023-04-23T07:14:43;9.80;;;5.85;;
66169;SDS011;66757;44.024;20.456;2023-04-23T07:17:09;11.30;;;6.07;;
66169;SDS011;66757;44.024;20.456;2023-04-23T07:19:35;9.00;;;5.70;;
66169;SDS011;66757;44.024;20.456;2023-04-23T07:22:00;9.93;;;6.50;;
66169;SDS011;66757;44.024;20.456;2023-04-23T07:24:26;12.38;;;6.32;;
66169;SDS011;66757;44.024;20.456;2023-04-23T07:26:51;9.68;;;5.75;;
66169;SDS011;66757;44.024;20.456;2023-04-23T07:29:16;9.48;;;5.78;;
66169;SDS011;66757;44.024;20.456;2023-04-23T07:31:41;14.55;;;6.30;;
66169;SDS011;66757;44.024;20.456;2023-04-23T07:34:07;12.10;;;6.20;;
66169;SDS011;66757;44.024;20.456;2023-04-23T07:36:34;9.80;;;5.32;;
66169;SDS011;66757;44.024;20.456;2023-04-23T07:38:59;10.02;;;5.45;;
66169;SDS011;66757;44.024;20.456;2023-04-23T07:41:26;10.68;;;5.63;;
66169;SDS011;66757;44.024;20.456;2023-04-23T07:43:52;10.68;;;6.07;;
66169;SDS011;66757;44.024;20.456;2023-04-23T07:46:17;11.27;;;5.70;;
66169;SDS011;66757;44.024;20.456;2023-04-23T07:48:44;10.50;;;4.88;;
66169;SDS011;66757;44.024;20.456;2023-04-23T07:51:09;10.63;;;4.75;;
66169;SDS011;66757;44.024;20.456;2023-04-23T07:53:34;5.88;;;4.43;;
66169;SDS011;66757;44.024;20.456;2023-04-23T07:55:59;14.70;;;5.18;;
66169;SDS011;66757;44.024;20.456;2023-04-23T07:58:25;8.93;;;4.25;;
66169;SDS011;66757;44.024;20.456;2023-04-23T08:00:50;11.07;;;3.85;;
66169;SDS011;66757;44.024;20.456;2023-04-23T08:03:15;7.68;;;4.07;;
66169;SDS011;66757;44.024;20.456;2023-04-23T08:05:41;6.28;;;3.60;;
66169;SDS011;66757;44.024;20.456;2023-04-23T08:08:06;7.32;;;5.85;;
66169;SDS011;66757;44.024;20.456;2023-04-23T08:10:33;5.80;;;3.15;;
66169;SDS011;66757;44.024;20.456;2023-04-23T08:12:59;9.18;;;3.72;;
66169;SDS011;66757;44.024;20.456;2023-04-23T08:15:24;9.55;;;4.63;;
66169;SDS011;66757;44.024;20.456;2023-04-23T08:17:50;2.85;;;2.38;;
66169;SDS011;66757;44.024;20.456;2023-04-23T08:20:15;3.55;;;2.20;;
66169;SDS011;66757;44.024;20.456;2023-04-23T08:22:41;6.15;;;2.70;;
66169;SDS011;66757;44.024;20.456;2023-04-23T08:25:06;5.60;;;2.92;;
66169;SDS011;66757;44.024;20.456;2023-04-23T08:27:31;7.50;;;2.97;;
66169;SDS011;66757;44.024;20.456;2023-04-23T08:29:57;4.07;;;2.42;;
66169;SDS011;66757;44.024;20.456;2023-04-23T08:32:22;5.18;;;2.28;;
66169;SDS011;66757;44.024;20.456;2023-04-23T08:34:49;5.20;;;2.28;;
66169;SDS011;66757;44.024;20.456;2023-04-23T08:37:14;5.00;;;2.50;;
66169;SDS011;66757;44.024;20.456;2023-04-23T08:39:39;10.65;;;2.47;;
66169;SDS011;66757;44.024;20.456;2023-04-23T08:42:26;8.32;;;2.92;;
66169;SDS011;66757;44.024;20.456;2023-04-23T08:44:53;4.28;;;2.50;;
66169;SDS011;66757;44.024;20.456;2023-04-23T08:47:19;4.75;;;2.90;;
66169;SDS011;66757;44.024;20.456;2023-04-23T08:49:46;2.90;;;2.53;;
66169;SDS011;66757;44.024;20.456;2023-04-23T08:52:15;9.60;;;3.08;;
66169;SDS011;66757;44.024;20.456;2023-04-23T08:54:44;6.35;;;2.90;;
66169;SDS011;66757;44.024;20.456;2023-04-23T08:57:10;5.75;;;2.20;;
66169;SDS011;66757;44.024;20.456;2023-04-23T08:59:35;5.68;;;2.70;;
66169;SDS011;66757;44.024;20.456;2023-04-23T09:02:01;7.30;;;2.17;;
66169;SDS011;66757;44.024;20.456;2023-04-23T09:04:32;4.20;;;2.20;;
66169;SDS011;66757;44.024;20.456;2023-04-23T09:06:57;4.82;;;2.35;;
66169;SDS011;66757;44.024;20.456;2023-04-23T09:09:24;6.47;;;2.10;;
66169;SDS011;66757;44.024;20.456;2023-04-23T09:11:51;7.57;;;2.42;;
66169;SDS011;66757;44.024;20.456;2023-04-23T09:14:17;4.22;;;2.33;;
66169;SDS011;66757;44.024;20.456;2023-04-23T09:16:43;6.22;;;1.95;;
66169;SDS011;66757;44.024;20.456;2023-04-23T09:19:08;5.88;;;1.70;;
66169;SDS011;66757;44.024;20.456;2023-04-23T09:21:35;6.10;;;2.83;;
66169;SDS011;66757;44.024;20.456;2023-04-23T09:24:04;5.93;;;2.40;;
66169;SDS011;66757;44.024;20.456;2023-04-23T09:26:29;5.68;;;1.67;;
66169;SDS011;66757;44.024;20.456;2023-04-23T09:28:55;4.50;;;1.77;;
66169;SDS011;66757;44.024;20.456;2023-04-23T09:31:20;3.20;;;1.70;;
66169;SDS011;66757;44.024;20.456;2023-04-23T09:33:53;4.80;;;2.10;;
66169;SDS011;66757;44.024;20.456;2023-04-23T09:36:22;3.15;;;1.90;;
66169;SDS011;66757;44.024;20.456;2023-04-23T09:38:48;3.78;;;1.95;;
66169;SDS011;66757;44.024;20.456;2023-04-23T09:41:20;5.00;;;1.67;;
66169;SDS011;66757;44.024;20.456;2023-04-23T09:43:51;4.60;;;2.17;;
66169;SDS011;66757;44.024;20.456;2023-04-23T09:46:16;4.75;;;1.90;;
66169;SDS011;66757;44.024;20.456;2023-04-23T09:48:42;5.40;;;2.08;;
66169;SDS011;66757;44.024;20.456;2023-04-23T09:51:07;4.45;;;1.80;;
66169;SDS011;66757;44.024;20.456;2023-04-23T09:53:40;3.88;;;1.98;;
66169;SDS011;66757;44.024;20.456;2023-04-23T09:56:06;3.95;;;1.77;;
66169;SDS011;66757;44.024;20.456;2023-04-23T09:58:32;6.97;;;1.92;;
66169;SDS011;66757;44.024;20.456;2023-04-23T10:01:07;5.57;;;2.95;;
66169;SDS011;66757;44.024;20.456;2023-04-23T10:03:32;4.07;;;1.45;;
66169;SDS011;66757;44.024;20.456;2023-04-23T10:05:58;4.88;;;1.70;;
66169;SDS011;66757;44.024;20.456;2023-04-23T10:08:23;6.55;;;1.50;;
66169;SDS011;66757;44.024;20.456;2023-04-23T10:10:50;2.88;;;1.45;;
66169;SDS011;66757;44.024;20.456;2023-04-23T10:13:16;3.90;;;2.03;;
66169;SDS011;66757;44.024;20.456;2023-04-23T10:15:41;5.22;;;1.58;;
66169;SDS011;66757;44.024;20.456;2023-04-23T10:18:07;3.75;;;1.38;;
66169;SDS011;66757;44.024;20.456;2023-04-23T10:20:33;5.32;;;1.85;;
66169;SDS011;66757;44.024;20.456;2023-04-23T10:22:59;4.60;;;1.83;;
66169;SDS011;66757;44.024;20.456;2023-04-23T10:25:25;5.68;;;1.33;;
66169;SDS011;66757;44.024;20.456;2023-04-23T10:27:52;4.55;;;1.42;;
66169;SDS011;66757;44.024;20.456;2023-04-23T10:30:19;3.45;;;1.42;;
66169;SDS011;66757;44.024;20.456;2023-04-23T10:32:44;3.05;;;1.10;;
66169;SDS011;66757;44.024;20.456;2023-04-23T10:35:12;4.97;;;1.40;;
66169;SDS011;66757;44.024;20.456;2023-04-23T10:37:37;3.35;;;1.17;;
66169;SDS011;66757;44.024;20.456;2023-04-23T10:40:07;4.68;;;1.08;;
66169;SDS011;66757;44.024;20.456;2023-04-23T10:42:36;2.08;;;0.80;;
66169;SDS011;66757;44.024;20.456;2023-04-23T10:45:06;3.75;;;1.17;;
66169;SDS011;66757;44.024;20.456;2023-04-23T10:47:32;4.28;;;1.02;;
66169;SDS011;66757;44.024;20.456;2023-04-23T10:49:57;2.90;;;1.67;;
66169;SDS011;66757;44.024;20.456;2023-04-23T10:52:42;5.55;;;1.45;;
66169;SDS011;66757;44.024;20.456;2023-04-23T10:55:15;3.60;;;0.80;;
66169;SDS011;66757;44.024;20.456;2023-04-23T10:58:00;2.30;;;0.67;;
66169;SDS011;66757;44.024;20.456;2023-04-23T11:00:26;4.22;;;0.88;;
66169;SDS011;66757;44.024;20.456;2023-04-23T11:02:52;2.75;;;0.60;;
66169;SDS011;66757;44.024;20.456;2023-04-23T11:05:17;4.45;;;1.70;;
66169;SDS011;66757;44.024;20.456;2023-04-23T11:08:00;1.90;;;0.70;;
66169;SDS011;66757;44.024;20.456;2023-04-23T11:10:26;4.28;;;1.17;;
66169;SDS011;66757;44.024;20.456;2023-04-23T11:12:51;2.40;;;1.85;;
66169;SDS011;66757;44.024;20.456;2023-04-23T11:15:17;2.67;;;0.90;;
66169;SDS011;66757;44.024;20.456;2023-04-23T11:25:12;3.42;;;0.80;;
66169;SDS011;66757;44.024;20.456;2023-04-23T11:27:38;2.97;;;1.10;;
66169;SDS011;66757;44.024;20.456;2023-04-23T11:30:04;3.70;;;1.00;;
66169;SDS011;66757;44.024;20.456;2023-04-23T11:32:31;2.65;;;1.15;;
66169;SDS011;66757;44.024;20.456;2023-04-23T11:34:56;3.08;;;1.23;;
66169;SDS011;66757;44.024;20.456;2023-04-23T11:37:22;2.80;;;1.23;;
66169;SDS011;66757;44.024;20.456;2023-04-23T11:39:50;5.57;;;1.73;;
66169;SDS011;66757;44.024;20.456;2023-04-23T11:42:16;2.53;;;1.55;;
66169;SDS011;66757;44.024;20.456;2023-04-23T11:44:44;2.95;;;1.45;;
66169;SDS011;66757;44.024;20.456;2023-04-23T11:47:10;3.08;;;1.02;;
66169;SDS011;66757;44.024;20.456;2023-04-23T11:49:37;3.42;;;1.60;;
66169;SDS011;66757;44.024;20.456;2023-04-23T11:52:02;3.83;;;2.13;;
66169;SDS011;66757;44.024;20.456;2023-04-23T11:54:27;5.40;;;1.95;;
66169;SDS011;66757;44.024;20.456;2023-04-23T11:56:53;15.98;;;9.32;;
66169;SDS011;66757;44.024;20.456;2023-04-23T11:59:19;4.85;;;1.80;;
66169;SDS011;66757;44.024;20.456;2023-04-23T12:01:45;5.68;;;2.60;;
66169;SDS011;66757;44.024;20.456;2023-04-23T12:04:15;6.65;;;3.15;;
66169;SDS011;66757;44.024;20.456;2023-04-23T12:06:41;11.40;;;4.22;;
66169;SDS011;66757;44.024;20.456;2023-04-23T12:09:07;9.57;;;3.65;;
66169;SDS011;66757;44.024;20.456;2023-04-23T12:11:33;8.18;;;3.80;;
66169;SDS011;66757;44.024;20.456;2023-04-23T12:13:59;12.70;;;6.70;;
66169;SDS011;66757;44.024;20.456;2023-04-23T12:16:34;13.65;;;7.78;;
66169;SDS011;66757;44.024;20.456;2023-04-23T12:19:01;9.52;;;3.83;;
66169;SDS011;66757;44.024;20.456;2023-04-23T12:21:26;3.72;;;1.85;;
66169;SDS011;66757;44.024;20.456;2023-04-23T12:23:55;3.75;;;2.25;;
66169;SDS011;66757;44.024;20.456;2023-04-23T12:26:20;6.45;;;2.40;;
66169;SDS011;66757;44.024;20.456;2023-04-23T12:28:50;6.68;;;4.90;;
66169;SDS011;66757;44.024;20.456;2023-04-23T12:31:22;5.55;;;4.82;;
66169;SDS011;66757;44.024;20.456;2023-04-23T12:33:52;8.13;;;4.80;;
66169;SDS011;66757;44.024;20.456;2023-04-23T12:36:20;6.65;;;3.70;;
66169;SDS011;66757;44.024;20.456;2023-04-23T12:38:49;8.55;;;5.25;;
66169;SDS011;66757;44.024;20.456;2023-04-23T12:41:15;10.63;;;6.53;;
66169;SDS011;66757;44.024;20.456;2023-04-23T12:43:40;8.05;;;5.75;;
66169;SDS011;66757;44.024;20.456;2023-04-23T12:46:05;10.02;;;5.20;;
66169;SDS011;66757;44.024;20.456;2023-04-23T12:48:31;7.40;;;5.47;;
66169;SDS011;66757;44.024;20.456;2023-04-23T12:50:56;8.40;;;4.65;;
66169;SDS011;66757;44.024;20.456;2023-04-23T12:53:22;5.72;;;3.78;;
66169;SDS011;66757;44.024;20.456;2023-04-23T12:55:47;6.15;;;3.75;;
66169;SDS011;66757;44.024;20.456;2023-04-23T12:58:14;4.57;;;2.78;;
66169;SDS011;66757;44.024;20.456;2023-04-23T13:00:39;5.43;;;3.65;;
66169;SDS011;66757;44.024;20.456;2023-04-23T13:03:04;7.53;;;3.53;;
66169;SDS011;66757;44.024;20.456;2023-04-23T13:05:30;7.72;;;4.55;;
66169;SDS011;66757;44.024;20.456;2023-04-23T13:07:55;6.20;;;2.20;;
66169;SDS011;66757;44.024;20.456;2023-04-23T13:10:21;3.03;;;2.17;;
66169;SDS011;66757;44.024;20.456;2023-04-23T13:12:46;4.45;;;2.33;;
66169;SDS011;66757;44.024;20.456;2023-04-23T13:15:11;13.00;;;5.00;;
66169;SDS011;66757;44.024;20.456;2023-04-23T13:20:06;3.47;;;2.30;;
66169;SDS011;66757;44.024;20.456;2023-04-23T13:28:20;4.43;;;2.00;;
66169;SDS011;66757;44.024;20.456;2023-04-23T13:30:45;6.53;;;2.50;;
66169;SDS011;66757;44.024;20.456;2023-04-23T13:33:11;4.40;;;1.80;;
66169;SDS011;66757;44.024;20.456;2023-04-23T13:41:23;5.30;;;1.85;;
66169;SDS011;66757;44.024;20.456;2023-04-23T13:43:51;2.80;;;1.65;;
66169;SDS011;66757;44.024;20.456;2023-04-23T13:46:17;3.45;;;1.60;;
66169;SDS011;66757;44.024;20.456;2023-04-23T13:51:36;5.68;;;2.78;;
66169;SDS011;66757;44.024;20.456;2023-04-23T13:54:01;16.00;;;4.57;;
66169;SDS011;66757;44.024;20.456;2023-04-23T13:56:27;5.40;;;1.75;;
66169;SDS011;66757;44.024;20.456;2023-04-23T13:58:54;7.63;;;1.95;;
66169;SDS011;66757;44.024;20.456;2023-04-23T14:01:23;7.30;;;2.05;;
66169;SDS011;66757;44.024;20.456;2023-04-23T14:03:49;5.90;;;1.45;;
66169;SDS011;66757;44.024;20.456;2023-04-23T14:06:15;3.60;;;1.40;;
66169;SDS011;66757;44.024;20.456;2023-04-23T14:08:40;5.88;;;1.58;;
66169;SDS011;66757;44.024;20.456;2023-04-23T14:16:56;3.38;;;2.50;;
66169;SDS011;66757;44.024;20.456;2023-04-23T14:19:22;5.30;;;1.42;;
66169;SDS011;66757;44.024;20.456;2023-04-23T14:21:47;4.00;;;1.60;;
66169;SDS011;66757;44.024;20.456;2023-04-23T14:24:28;7.40;;;2.38;;
66169;SDS011;66757;44.024;20.456;2023-04-23T14:26:57;7.65;;;2.53;;
66169;SDS011;66757;44.024;20.456;2023-04-23T14:29:23;7.90;;;2.65;;
66169;SDS011;66757;44.024;20.456;2023-04-23T14:31:52;8.93;;;1.83;;
66169;SDS011;66757;44.024;20.456;2023-04-23T14:34:17;6.13;;;1.50;;
66169;SDS011;66757;44.024;20.456;2023-04-23T14:36:43;4.88;;;1.60;;
66169;SDS011;66757;44.024;20.456;2023-04-23T14:39:13;7.20;;;1.80;;
66169;SDS011;66757;44.024;20.456;2023-04-23T14:41:38;5.55;;;1.35;;
66169;SDS011;66757;44.024;20.456;2023-04-23T14:44:04;3.97;;;1.52;;
66169;SDS011;66757;44.024;20.456;2023-04-23T14:46:30;8.43;;;5.40;;
66169;SDS011;66757;44.024;20.456;2023-04-23T14:48:56;5.43;;;1.70;;
66169;SDS011;66757;44.024;20.456;2023-04-23T14:51:23;12.18;;;2.88;;
66169;SDS011;66757;44.024;20.456;2023-04-23T14:53:50;2.60;;;1.15;;
66169;SDS011;66757;44.024;20.456;2023-04-23T14:56:15;2.10;;;1.17;;